Time;durP1;ratioP1;P1;durP2;ratioP2;P2;SDS_P1;SDS_P2;PMS_P1;PMS_P2;Temp;Humidity;BMP_temperature;BMP_pressure;BME280_temperature;BME280_humidity;BME280_pressure;Samples;Min_cycle;Max_cycle;Signal;HPM_P1;HPM_P2
2024/04/03 00:01:29;;;;;;;909.50;843.40;;;10.10;99.90;;;;;;5075284;28;20458;-66
2024/04/03 00:03:55;;;;;;;914.10;846.60;;;10.10;99.90;;;;;;5075027;28;20222;-66
2024/04/03 00:06:21;;;;;;;927.40;858.17;;;10.10;99.90;;;;;;5083456;28;20454;-65
2024/04/03 00:08:47;;;;;;;915.97;845.37;;;10.10;99.90;;;;;;5084492;28;20656;-66
2024/04/03 00:11:15;;;;;;;911.20;840.50;;;10.10;99.90;;;;;;5081678;28;20460;-65
2024/04/03 00:13:42;;;;;;;919.30;848.30;;;10.10;99.90;;;;;;5075116;28;20242;-66
2024/04/03 00:16:08;;;;;;;913.23;842.30;;;10.10;99.90;;;;;;5074825;28;20489;-66
2024/04/03 00:18:34;;;;;;;897.30;825.43;;;10.10;99.90;;;;;;5083031;28;20204;-66
2024/04/03 00:21:02;;;;;;;908.43;835.33;;;10.00;99.90;;;;;;5095015;28;20479;-65
2024/04/03 00:23:28;;;;;;;914.07;839.60;;;10.10;99.90;;;;;;5094693;28;20226;-66
2024/04/03 00:25:59;;;;;;;906.10;832.27;;;10.00;99.90;;;;;;5075764;28;20454;-65
2024/04/03 00:28:27;;;;;;;925.67;851.13;;;10.00;99.90;;;;;;5083223;28;20245;-65
2024/04/03 00:30:54;;;;;;;924.90;850.03;;;10.00;99.90;;;;;;5074066;28;20465;-65
2024/04/03 00:33:20;;;;;;;925.70;849.53;;;10.00;99.90;;;;;;5082984;28;20473;-66
2024/04/03 00:35:57;;;;;;;918.50;842.47;;;10.00;99.90;;;;;;5074162;28;20482;-65
2024/04/03 00:38:24;;;;;;;918.33;841.40;;;10.00;99.90;;;;;;5081431;28;20484;-66
2024/04/03 00:40:54;;;;;;;952.97;874.47;;;10.00;99.90;;;;;;5075570;28;20458;-65
2024/04/03 00:43:20;;;;;;;986.20;907.30;;;10.00;99.90;;;;;;5073931;28;20474;-65
2024/04/03 00:45:49;;;;;;;1016.60;934.20;;;10.00;99.90;;;;;;5082787;28;20465;-65
2024/04/03 00:48:15;;;;;;;1040.10;957.20;;;10.00;99.90;;;;;;5082387;28;20200;-65
2024/04/03 00:50:43;;;;;;;1049.07;965.77;;;10.00;99.90;;;;;;5082356;28;20979;-66
2024/04/03 00:53:09;;;;;;;1041.50;956.80;;;10.00;99.90;;;;;;5074359;28;20470;-65
2024/04/03 00:55:36;;;;;;;1041.83;957.97;;;10.00;99.90;;;;;;5074204;28;20521;-65
2024/04/03 00:58:03;;;;;;;1068.67;983.17;;;10.00;99.90;;;;;;5074149;28;20889;-65
2024/04/03 01:00:30;;;;;;;1083.40;997.97;;;10.00;99.90;;;;;;5073766;28;20458;-65
2024/04/03 01:02:58;;;;;;;1078.10;993.30;;;10.00;99.90;;;;;;5083014;28;21007;-64
2024/04/03 01:05:24;;;;;;;1083.00;996.97;;;10.00;99.90;;;;;;5074417;28;20465;-65
2024/04/03 01:07:50;;;;;;;1100.47;999.90;;;10.00;99.90;;;;;;5074608;28;20454;-65
2024/04/03 01:10:17;;;;;;;1100.83;999.90;;;10.00;99.90;;;;;;5073909;28;20460;-65
2024/04/03 01:12:43;;;;;;;1107.70;999.90;;;10.00;99.90;;;;;;5074104;28;20208;-65
2024/04/03 01:15:11;;;;;;;1139.00;999.90;;;10.00;99.90;;;;;;5078853;28;20477;-65
2024/04/03 01:17:37;;;;;;;1096.43;999.90;;;10.00;99.90;;;;;;5085161;28;20203;-65
2024/04/03 01:20:06;;;;;;;1068.47;983.70;;;10.00;99.90;;;;;;5077399;28;20510;-65
2024/04/03 01:22:32;;;;;;;1071.80;988.10;;;10.00;99.90;;;;;;5077733;28;20450;-65
2024/04/03 01:25:00;;;;;;;1077.33;992.70;;;10.00;99.90;;;;;;5073607;28;20839;-66
2024/04/03 01:27:27;;;;;;;1055.63;973.07;;;10.00;99.90;;;;;;5080729;28;20460;-66
2024/04/03 01:29:54;;;;;;;1038.80;956.57;;;10.00;99.90;;;;;;5073940;28;20470;-64
2024/04/03 01:32:20;;;;;;;1001.53;920.57;;;10.00;99.90;;;;;;5073885;28;20450;-65
2024/04/03 01:34:46;;;;;;;999.30;918.27;;;9.90;99.90;;;;;;5073477;28;20480;-66
2024/04/03 01:37:13;;;;;;;997.33;915.97;;;9.90;99.90;;;;;;5081853;28;20543;-66
2024/04/03 01:39:39;;;;;;;999.13;917.37;;;9.90;99.90;;;;;;5073306;28;20679;-66
2024/04/03 01:42:07;;;;;;;983.77;901.97;;;9.90;99.90;;;;;;5081011;28;20461;-65
2024/04/03 01:44:33;;;;;;;994.67;913.10;;;9.90;99.90;;;;;;5081689;28;20231;-65
2024/04/03 01:47:00;;;;;;;993.07;910.70;;;9.90;99.90;;;;;;5081436;28;20837;-65
2024/04/03 01:49:26;;;;;;;965.23;882.43;;;9.80;99.90;;;;;;5072710;28;20748;-65
2024/04/03 01:51:52;;;;;;;993.03;909.57;;;9.80;99.90;;;;;;5081573;28;20457;-66
2024/04/03 01:54:18;;;;;;;998.20;913.80;;;9.80;99.90;;;;;;5078278;28;20215;-65
2024/04/03 01:56:45;;;;;;;965.70;882.10;;;9.80;99.90;;;;;;5075010;28;20480;-65
2024/04/03 01:59:12;;;;;;;959.00;876.30;;;9.80;99.90;;;;;;5077386;28;20221;-65
2024/04/03 02:01:39;;;;;;;965.13;882.30;;;9.80;99.90;;;;;;5076409;28;20462;-65
2024/04/03 02:04:05;;;;;;;969.13;885.37;;;9.70;99.90;;;;;;5080631;28;20521;-65
2024/04/03 02:06:32;;;;;;;971.17;886.53;;;9.70;99.90;;;;;;5072729;28;20454;-65
2024/04/03 02:08:58;;;;;;;961.83;875.67;;;9.60;99.90;;;;;;5072501;28;20450;-65
2024/04/03 02:11:24;;;;;;;971.27;883.60;;;9.60;99.90;;;;;;5072632;28;20477;-65
2024/04/03 02:13:50;;;;;;;1001.63;913.17;;;9.60;99.90;;;;;;5074423;28;20220;-66
2024/04/03 02:16:18;;;;;;;989.50;900.30;;;9.60;99.90;;;;;;5084442;28;20862;-65
2024/04/03 02:18:44;;;;;;;985.23;894.93;;;9.50;99.90;;;;;;5082733;28;20704;-64
2024/04/03 02:21:11;;;;;;;970.47;882.20;;;9.50;99.90;;;;;;5073063;28;20458;-65
2024/04/03 02:23:36;;;;;;;981.37;892.23;;;9.50;99.90;;;;;;5080795;28;20219;-66
2024/04/03 02:26:04;;;;;;;971.93;883.83;;;9.50;99.90;;;;;;5072961;28;20815;-65
2024/04/03 02:28:29;;;;;;;968.50;879.50;;;9.50;99.90;;;;;;5080719;28;20206;-65
2024/04/03 02:31:02;;;;;;;957.40;869.83;;;9.40;99.90;;;;;;5071959;28;20474;-66
2024/04/03 02:33:30;;;;;;;956.80;868.47;;;9.40;99.90;;;;;;5072533;28;20227;-65
2024/04/03 02:35:56;;;;;;;958.87;870.10;;;9.40;99.90;;;;;;5075036;28;20496;-65
2024/04/03 02:38:22;;;;;;;945.67;856.67;;;9.40;99.90;;;;;;5077449;28;20450;-65
2024/04/03 02:40:49;;;;;;;945.10;855.53;;;9.50;99.90;;;;;;5071511;28;20458;-65
2024/04/03 02:43:15;;;;;;;956.07;866.77;;;9.40;99.90;;;;;;5080760;28;20220;-66
2024/04/03 02:45:41;;;;;;;951.27;862.40;;;9.60;99.90;;;;;;5072224;28;20460;-65
2024/04/03 02:48:07;;;;;;;951.23;861.43;;;9.40;99.90;;;;;;5072294;28;20203;-65
2024/04/03 02:50:35;;;;;;;945.67;856.87;;;9.40;99.90;;;;;;5071886;28;20948;-65
2024/04/03 02:53:01;;;;;;;956.63;867.23;;;9.40;99.90;;;;;;5080372;28;20227;-64
2024/04/03 02:55:28;;;;;;;966.07;875.50;;;9.30;99.90;;;;;;5071613;28;20482;-65
2024/04/03 02:57:54;;;;;;;948.40;855.73;;;9.30;99.90;;;;;;5071802;28;20204;-65
2024/04/03 03:00:21;;;;;;;945.93;853.10;;;9.30;99.90;;;;;;5078071;28;20460;-65
2024/04/03 03:02:47;;;;;;;951.90;857.20;;;9.30;99.90;;;;;;5073659;28;20228;-65
2024/04/03 03:05:14;;;;;;;970.30;875.70;;;9.30;99.90;;;;;;5071866;28;20464;-65
2024/04/03 03:07:42;;;;;;;954.87;859.47;;;9.30;99.90;;;;;;5080228;28;20453;-65
2024/04/03 03:10:09;;;;;;;962.57;866.27;;;9.30;99.90;;;;;;5071659;28;20469;-65
2024/04/03 03:12:34;;;;;;;963.90;868.10;;;9.30;99.90;;;;;;5071711;28;20492;-65
2024/04/03 03:15:01;;;;;;;967.83;871.50;;;9.40;99.90;;;;;;5075257;28;20453;-65
2024/04/03 03:17:27;;;;;;;950.87;854.33;;;9.40;99.90;;;;;;5083646;28;20199;-65
2024/04/03 03:19:54;;;;;;;953.70;857.40;;;9.40;99.90;;;;;;5072355;28;20549;-65
2024/04/03 03:22:20;;;;;;;957.20;861.20;;;9.40;99.90;;;;;;5080071;28;20200;-65
2024/04/03 03:24:49;;;;;;;964.77;869.57;;;9.40;99.90;;;;;;5071292;28;20481;-65
2024/04/03 03:27:15;;;;;;;972.53;876.77;;;9.40;99.90;;;;;;5077431;28;20449;-65
2024/04/03 03:29:42;;;;;;;967.10;871.10;;;9.40;99.90;;;;;;5074786;28;20472;-65
2024/04/03 03:32:08;;;;;;;975.67;877.57;;;9.40;99.90;;;;;;5079063;28;20200;-65
2024/04/03 03:34:35;;;;;;;977.07;880.80;;;9.40;99.90;;;;;;5071637;28;20850;-65
2024/04/03 03:37:01;;;;;;;964.90;869.40;;;9.40;99.90;;;;;;5079768;28;20216;-65
2024/04/03 03:39:28;;;;;;;974.77;877.90;;;9.40;99.90;;;;;;5071327;28;20450;-65
2024/04/03 03:41:57;;;;;;;975.33;879.40;;;9.40;99.90;;;;;;5071741;28;20450;-65
2024/04/03 03:44:24;;;;;;;988.07;890.90;;;9.40;99.90;;;;;;5071281;28;20985;-65
2024/04/03 03:46:50;;;;;;;980.47;883.87;;;9.50;99.90;;;;;;5071394;28;20450;-65
2024/04/03 03:54:46;;;;;;;1010.80;913.60;;;9.40;99.90;;;;;;5081900;28;20526;-66
2024/04/03 03:57:14;;;;;;;1158.23;999.90;;;9.40;99.90;;;;;;5074126;28;20534;-65
2024/04/03 03:59:41;;;;;;;1150.57;999.90;;;9.40;99.90;;;;;;5093776;28;20445;-66
2024/04/03 04:02:07;;;;;;;1139.60;999.90;;;9.40;99.90;;;;;;5075583;28;20449;-65
2024/04/03 04:04:34;;;;;;;1130.50;999.90;;;9.40;99.90;;;;;;5075363;28;20513;-65
2024/04/03 04:07:00;;;;;;;1133.90;999.90;;;9.40;99.90;;;;;;5074300;28;20453;-66
2024/04/03 04:09:27;;;;;;;1129.77;999.90;;;9.40;99.90;;;;;;5089838;28;20453;-65
2024/04/03 04:11:52;;;;;;;1141.40;999.90;;;9.40;99.90;;;;;;5081058;28;20303;-65
2024/04/03 04:14:21;;;;;;;1144.60;999.90;;;9.40;99.90;;;;;;5071299;28;20569;-65
2024/04/03 04:16:46;;;;;;;1143.47;999.90;;;9.40;99.90;;;;;;5079939;28;20220;-65
2024/04/03 04:19:13;;;;;;;1153.37;999.90;;;9.40;99.90;;;;;;5092933;28;20540;-65
2024/04/03 04:21:39;;;;;;;1145.50;999.90;;;9.30;99.90;;;;;;5086713;28;20667;-65
2024/04/03 04:24:06;;;;;;;1142.60;999.90;;;9.30;99.90;;;;;;5082648;28;20484;-65
2024/04/03 04:26:32;;;;;;;1141.83;999.90;;;9.30;99.90;;;;;;5083242;28;20202;-65
2024/04/03 04:28:59;;;;;;;1133.13;999.90;;;9.40;99.90;;;;;;5085467;28;20829;-65
2024/04/03 04:31:26;;;;;;;1138.20;999.90;;;9.30;99.90;;;;;;5092263;28;20196;-65
2024/04/03 04:33:52;;;;;;;1142.13;999.90;;;9.30;99.90;;;;;;5083177;28;20892;-65
2024/04/03 04:36:21;;;;;;;1119.00;999.90;;;9.30;99.90;;;;;;5083238;28;20509;-65
2024/04/03 04:38:48;;;;;;;1106.07;999.90;;;9.30;99.90;;;;;;5082513;28;20506;-65
2024/04/03 04:41:14;;;;;;;1105.10;997.40;;;9.30;99.90;;;;;;5074406;28;20461;-65
2024/04/03 04:43:41;;;;;;;1097.03;990.83;;;9.30;99.90;;;;;;5082499;28;20473;-66
2024/04/03 04:46:06;;;;;;;1103.33;996.23;;;9.20;99.90;;;;;;5074739;28;20200;-65
2024/04/03 04:48:35;;;;;;;1113.70;999.90;;;9.20;99.90;;;;;;5074310;28;20484;-64
2024/04/03 04:51:02;;;;;;;1102.47;991.70;;;9.30;99.90;;;;;;5074516;28;20600;-65
2024/04/03 04:53:29;;;;;;;1100.27;991.00;;;9.20;99.90;;;;;;5074292;28;20478;-66
2024/04/03 04:55:56;;;;;;;1120.33;999.90;;;9.20;99.90;;;;;;5083192;28;20477;-65
2024/04/03 04:58:23;;;;;;;1129.70;999.90;;;9.20;99.90;;;;;;5074134;28;20837;-65
2024/04/03 05:00:50;;;;;;;1092.10;986.80;;;9.20;99.90;;;;;;5074088;28;20845;-65
2024/04/03 05:03:17;;;;;;;1097.40;987.80;;;9.20;99.90;;;;;;5074090;28;20481;-65
2024/04/03 05:05:44;;;;;;;1104.47;994.07;;;9.20;99.90;;;;;;5073875;28;20450;-65
2024/04/03 05:08:11;;;;;;;1100.00;991.37;;;9.20;99.90;;;;;;5073829;28;20512;-66
2024/04/03 05:10:37;;;;;;;1116.33;999.90;;;9.20;99.90;;;;;;5073429;28;20478;-65
2024/04/03 05:13:04;;;;;;;1104.47;994.27;;;9.20;99.90;;;;;;5073956;28;20508;-65
2024/04/03 05:15:30;;;;;;;1117.63;999.90;;;9.20;99.90;;;;;;5073620;28;20962;-65
2024/04/03 05:17:58;;;;;;;1134.93;999.90;;;9.20;99.90;;;;;;5073717;28;20520;-65
2024/04/03 05:20:24;;;;;;;1128.40;999.90;;;9.30;99.90;;;;;;5073193;28;20457;-65
2024/04/03 05:22:52;;;;;;;1130.40;999.90;;;9.30;99.90;;;;;;5073478;28;20474;-65
2024/04/03 05:25:18;;;;;;;1148.23;999.90;;;9.30;99.90;;;;;;5079311;28;20453;-65
2024/04/03 05:27:45;;;;;;;1138.23;999.90;;;9.30;99.90;;;;;;5075935;28;20457;-66
2024/04/03 05:30:11;;;;;;;1140.57;999.90;;;9.30;99.90;;;;;;5080434;28;20855;-65
2024/04/03 05:32:38;;;;;;;1150.43;999.90;;;9.30;99.90;;;;;;5081833;28;21025;-65
2024/04/03 05:35:04;;;;;;;1151.03;999.90;;;9.30;99.90;;;;;;5081413;28;20950;-65
2024/04/03 05:37:31;;;;;;;1154.07;999.90;;;9.30;99.90;;;;;;5073432;28;20482;-66
2024/04/03 05:39:59;;;;;;;1147.73;999.90;;;9.30;99.90;;;;;;5072763;28;20458;-65
2024/04/03 05:42:26;;;;;;;1140.67;999.90;;;9.30;99.90;;;;;;5081803;28;20512;-65
2024/04/03 05:44:52;;;;;;;1141.67;999.90;;;9.30;99.90;;;;;;5081590;28;20450;-65
2024/04/03 05:47:19;;;;;;;1172.63;999.90;;;9.40;99.90;;;;;;5073249;28;20457;-65
2024/04/03 05:49:44;;;;;;;1166.50;999.90;;;9.40;99.90;;;;;;5077188;28;20965;-66
2024/04/03 05:52:11;;;;;;;1158.30;999.90;;;9.40;99.90;;;;;;5087087;28;20450;-65
2024/04/03 05:54:37;;;;;;;1164.90;999.90;;;9.50;99.90;;;;;;5087927;28;20218;-65
2024/04/03 05:57:05;;;;;;;1167.20;999.90;;;9.50;99.90;;;;;;5089103;28;20847;-65
2024/04/03 05:59:31;;;;;;;1167.20;999.90;;;9.50;99.90;;;;;;5085424;27;20191;-66
2024/04/03 06:01:58;;;;;;;1174.37;999.90;;;9.60;99.90;;;;;;5085409;28;20460;-66
2024/04/03 06:04:23;;;;;;;1189.83;999.90;;;9.60;99.90;;;;;;5093340;28;20218;-66
2024/04/03 06:06:51;;;;;;;1182.50;999.90;;;9.70;99.90;;;;;;5082326;28;20449;-66
2024/04/03 06:09:17;;;;;;;1182.57;999.90;;;9.70;99.90;;;;;;5088089;28;20195;-66
2024/04/03 06:11:43;;;;;;;1177.97;999.90;;;9.80;99.90;;;;;;5087760;28;20450;-65
2024/04/03 06:14:10;;;;;;;1177.13;999.90;;;9.80;99.90;;;;;;5087431;28;20216;-65
2024/04/03 06:16:37;;;;;;;1181.40;999.90;;;9.90;99.90;;;;;;5075712;28;20488;-66
2024/04/03 06:19:05;;;;;;;1173.00;999.90;;;9.80;99.90;;;;;;5071800;28;20455;-65
2024/04/03 06:21:32;;;;;;;1171.67;999.90;;;9.80;99.90;;;;;;5072353;28;20458;-65
2024/04/03 06:23:58;;;;;;;1179.43;999.90;;;9.80;99.90;;;;;;5091521;28;20466;-67
2024/04/03 06:26:25;;;;;;;1175.63;999.90;;;9.80;99.90;;;;;;5077403;28;20954;-66
2024/04/03 06:28:51;;;;;;;1151.57;999.90;;;9.90;99.90;;;;;;5071866;28;20526;-65
2024/04/03 06:31:19;;;;;;;1179.73;999.90;;;9.90;99.90;;;;;;5072500;28;20470;-65
2024/04/03 06:33:45;;;;;;;1175.70;999.90;;;9.90;99.90;;;;;;5086364;28;20213;-65
2024/04/03 06:36:11;;;;;;;1159.67;999.90;;;9.90;99.90;;;;;;5094907;28;20925;-66
2024/04/03 06:38:38;;;;;;;1136.97;999.90;;;10.00;99.90;;;;;;5094239;28;20300;-66
2024/04/03 06:41:05;;;;;;;1109.77;999.90;;;10.00;99.90;;;;;;5078999;28;20938;-66
2024/04/03 06:43:30;;;;;;;1101.43;999.90;;;10.10;99.90;;;;;;5083393;28;20469;-65
2024/04/03 06:45:58;;;;;;;1090.93;999.37;;;10.20;99.90;;;;;;5092872;28;20461;-65
2024/04/03 06:48:25;;;;;;;1088.97;997.53;;;10.20;99.90;;;;;;5075995;28;20670;-66
2024/04/03 06:50:52;;;;;;;1080.73;990.77;;;10.30;99.90;;;;;;5090272;28;20457;-65
2024/04/03 06:53:18;;;;;;;1073.23;983.93;;;10.40;99.90;;;;;;5080611;28;20476;-65
2024/04/03 06:55:55;;;;;;;1068.53;981.10;;;10.50;99.90;;;;;;5073306;28;20454;-65
2024/04/03 06:58:21;;;;;;;1056.37;970.73;;;10.60;99.90;;;;;;5077682;28;20203;-65
2024/04/03 07:00:48;;;;;;;1048.60;963.80;;;10.70;99.90;;;;;;5072745;28;20457;-65
2024/04/03 07:03:13;;;;;;;1049.23;964.77;;;10.80;99.90;;;;;;5081780;28;20470;-65
2024/04/03 07:05:43;;;;;;;997.07;916.27;;;10.90;99.90;;;;;;5082687;28;20461;-65
2024/04/03 07:08:09;;;;;;;952.67;876.43;;;11.00;99.90;;;;;;5074715;28;20207;-65
2024/04/03 07:10:36;;;;;;;935.57;861.30;;;11.10;99.90;;;;;;5073601;28;20511;-66
2024/04/03 07:13:03;;;;;;;905.80;837.50;;;11.10;99.90;;;;;;5071499;28;20823;-66
2024/04/03 07:15:31;;;;;;;900.83;833.43;;;11.10;99.90;;;;;;5071725;28;20869;-65
2024/04/03 07:17:57;;;;;;;891.10;824.73;;;11.20;99.90;;;;;;5079099;28;20575;-66
2024/04/03 07:20:25;;;;;;;879.53;814.27;;;11.20;99.90;;;;;;5071101;28;20482;-65
2024/04/03 07:22:54;;;;;;;882.23;818.00;;;11.20;99.90;;;;;;5080050;28;20481;-65
2024/04/03 07:25:21;;;;;;;877.33;812.47;;;11.30;99.90;;;;;;5070610;28;20881;-65
2024/04/03 07:27:47;;;;;;;880.50;817.70;;;11.30;99.90;;;;;;5076908;28;20445;-65
2024/04/03 07:30:14;;;;;;;862.53;801.57;;;11.30;99.90;;;;;;5075924;28;20647;-65
2024/04/03 07:32:41;;;;;;;855.80;796.30;;;11.40;99.90;;;;;;5085890;28;21031;-64
2024/04/03 07:35:08;;;;;;;859.87;801.47;;;11.40;99.90;;;;;;5071047;28;20886;-64
2024/04/03 07:37:38;;;;;;;858.20;801.27;;;11.40;99.90;;;;;;5071042;28;20478;-65
2024/04/03 07:40:08;;;;;;;866.83;805.47;;;11.40;99.90;;;;;;5070679;28;20544;-64
2024/04/03 07:42:36;;;;;;;859.20;801.40;;;11.50;99.90;;;;;;5073584;28;20446;-65
2024/04/03 07:45:05;;;;;;;864.10;805.00;;;11.60;99.90;;;;;;5079834;28;20537;-65
2024/04/03 07:47:31;;;;;;;848.33;793.23;;;11.60;99.90;;;;;;5078781;28;20507;-65
2024/04/03 07:49:58;;;;;;;835.97;783.43;;;11.70;99.90;;;;;;5071064;28;20533;-65
2024/04/03 07:52:24;;;;;;;838.17;786.37;;;11.70;99.90;;;;;;5077507;28;20445;-66
2024/04/03 07:54:51;;;;;;;846.67;793.87;;;11.60;99.90;;;;;;5076505;28;20484;-65
2024/04/03 07:57:18;;;;;;;836.03;786.20;;;11.60;99.90;;;;;;5079948;28;20216;-65
2024/04/03 07:59:46;;;;;;;845.40;794.47;;;11.60;99.90;;;;;;5082937;28;20548;-64
2024/04/03 08:02:12;;;;;;;834.20;785.67;;;11.70;99.90;;;;;;5082592;28;20503;-64
2024/04/03 08:04:39;;;;;;;837.83;789.35;;;11.60;99.90;;;;;;5081173;28;20456;-64
2024/04/03 08:07:05;;;;;;;842.95;790.35;;;11.60;99.90;;;;;;5085215;28;20453;-64
2024/04/03 08:09:32;;;;;;;833.03;782.13;;;11.70;99.90;;;;;;5091651;28;20197;-65
2024/04/03 08:12:00;;;;;;;828.73;779.80;;;11.80;99.90;;;;;;5082572;28;20287;-64
2024/04/03 08:14:28;;;;;;;826.13;779.00;;;11.90;99.90;;;;;;5081983;28;20477;-65
2024/04/03 08:16:54;;;;;;;797.77;757.80;;;11.90;99.90;;;;;;5078038;28;20561;-65
2024/04/03 08:19:21;;;;;;;798.67;759.20;;;11.90;99.90;;;;;;5079599;28;20919;-63
2024/04/03 08:21:48;;;;;;;808.77;767.50;;;11.90;99.90;;;;;;5074527;28;20456;-64
2024/04/03 08:24:14;;;;;;;784.63;746.53;;;11.90;99.90;;;;;;5074690;28;20489;-65
2024/04/03 08:26:41;;;;;;;813.60;770.53;;;12.10;99.90;;;;;;5082801;28;20446;-65
2024/04/03 08:29:08;;;;;;;788.73;749.33;;;12.00;99.90;;;;;;5081721;28;20493;-65
2024/04/03 08:31:35;;;;;;;764.30;728.40;;;12.00;99.90;;;;;;5074311;28;20446;-65
2024/04/03 08:34:03;;;;;;;778.77;740.80;;;12.10;99.90;;;;;;5082981;28;20482;-65
2024/04/03 08:36:28;;;;;;;784.50;744.43;;;12.20;99.90;;;;;;5074036;28;20484;-65
2024/04/03 08:38:55;;;;;;;760.17;724.97;;;12.20;99.90;;;;;;5074097;28;20716;-65
2024/04/03 08:41:21;;;;;;;736.63;704.23;;;12.20;99.90;;;;;;5080749;28;20475;-65
2024/04/03 08:43:51;;;;;;;733.60;702.00;;;12.20;99.90;;;;;;5084410;28;20469;-65
2024/04/03 08:46:18;;;;;;;697.17;669.47;;;12.10;99.90;;;;;;5073847;28;20196;-65
2024/04/03 08:48:47;;;;;;;700.03;672.37;;;12.00;99.90;;;;;;5073471;28;20893;-64
2024/04/03 08:51:14;;;;;;;814.87;774.00;;;11.90;99.90;;;;;;5082014;28;20511;-65
2024/04/03 08:53:43;;;;;;;775.73;740.33;;;11.80;99.90;;;;;;5074340;28;20478;-64
2024/04/03 08:56:14;;;;;;;809.60;769.50;;;11.80;99.90;;;;;;5081232;28;20511;-65
2024/04/03 08:58:41;;;;;;;824.63;781.30;;;11.80;99.90;;;;;;5073101;28;20462;-65
2024/04/03 09:01:08;;;;;;;799.60;760.30;;;11.80;99.90;;;;;;5073659;28;20454;-65
2024/04/03 09:03:34;;;;;;;768.80;733.67;;;11.70;99.90;;;;;;5081357;28;20530;-65
2024/04/03 09:06:02;;;;;;;771.13;735.03;;;11.70;99.90;;;;;;5073579;28;20458;-65
2024/04/03 09:08:40;;;;;;;752.87;719.67;;;11.70;99.90;;;;;;5072511;28;20869;-64
2024/04/03 09:11:05;;;;;;;720.23;689.63;;;11.60;99.90;;;;;;5073073;28;20460;-64
2024/04/03 09:13:32;;;;;;;751.47;718.60;;;11.60;99.90;;;;;;5073215;28;20556;-65
2024/04/03 09:15:59;;;;;;;642.30;618.50;;;11.70;99.90;;;;;;5081618;28;20636;-65
2024/04/03 09:18:26;;;;;;;651.93;627.83;;;11.70;99.90;;;;;;5073115;28;20536;-65
2024/04/03 09:20:52;;;;;;;691.97;664.80;;;11.70;99.90;;;;;;5072511;28;20460;-64
2024/04/03 09:23:21;;;;;;;738.33;706.07;;;11.70;99.90;;;;;;5073115;28;20474;-65
2024/04/03 09:25:48;;;;;;;702.17;673.27;;;11.70;99.90;;;;;;5083269;28;20459;-64
2024/04/03 09:28:15;;;;;;;735.03;703.50;;;11.80;99.90;;;;;;5084918;28;20909;-65
2024/04/03 09:30:46;;;;;;;594.57;572.97;;;11.80;99.90;;;;;;5075895;28;20584;-65
2024/04/03 09:33:13;;;;;;;698.00;670.20;;;11.70;99.90;;;;;;5077667;28;21072;-65
2024/04/03 09:35:40;;;;;;;590.20;569.83;;;11.70;99.90;;;;;;5084730;28;20445;-65
2024/04/03 09:38:10;;;;;;;647.37;623.37;;;11.60;99.90;;;;;;5076966;28;20488;-65
2024/04/03 09:40:39;;;;;;;711.57;683.20;;;11.60;99.90;;;;;;5076005;28;20460;-65
2024/04/03 09:43:07;;;;;;;627.33;604.73;;;11.70;99.90;;;;;;5072736;28;20486;-64
2024/04/03 09:45:34;;;;;;;572.93;553.23;;;11.70;99.90;;;;;;5081369;28;20446;-65
2024/04/03 09:48:02;;;;;;;669.07;643.67;;;11.80;99.90;;;;;;5080556;28;20454;-65
2024/04/03 09:50:36;;;;;;;587.60;567.00;;;11.90;99.90;;;;;;5075776;28;20960;-65
2024/04/03 09:53:08;;;;;;;604.63;583.43;;;11.90;99.90;;;;;;5079918;28;20845;-65
2024/04/03 09:55:34;;;;;;;599.77;578.83;;;12.00;99.90;;;;;;5079456;28;20449;-65
2024/04/03 09:58:04;;;;;;;566.07;547.10;;;12.10;99.90;;;;;;5075835;28;20527;-64
2024/04/03 10:00:32;;;;;;;408.47;395.90;;;12.10;99.90;;;;;;5075884;28;20527;-65
2024/04/03 10:02:59;;;;;;;514.87;498.43;;;12.20;99.90;;;;;;5072106;28;21004;-66
2024/04/03 10:05:34;;;;;;;511.40;495.50;;;12.30;99.90;;;;;;5076989;28;20459;-65
2024/04/03 10:08:09;;;;;;;444.43;430.83;;;12.40;99.90;;;;;;5071743;28;20450;-64
2024/04/03 10:10:42;;;;;;;401.10;388.70;;;12.40;99.90;;;;;;5071641;28;20450;-64
2024/04/03 10:13:13;;;;;;;340.13;330.13;;;12.40;99.90;;;;;;5080484;28;20502;-63
2024/04/03 10:15:39;;;;;;;150.50;145.70;;;12.40;99.90;;;;;;5079615;28;21002;-64
2024/04/03 10:18:06;;;;;;;172.63;167.23;;;12.30;99.90;;;;;;5071204;28;20913;-65
2024/04/03 10:20:36;;;;;;;321.87;312.43;;;12.30;99.90;;;;;;5079841;28;21168;-65
2024/04/03 10:23:07;;;;;;;229.70;222.80;;;12.20;99.90;;;;;;5071161;28;21393;-65
2024/04/03 10:25:33;;;;;;;133.93;129.63;;;12.10;99.90;;;;;;5075105;28;20934;-64
2024/04/03 10:27:59;;;;;;;163.73;158.03;;;12.10;99.90;;;;;;5073914;28;20532;-63
2024/04/03 10:30:27;;;;;;;162.37;157.03;;;12.00;99.90;;;;;;5079989;28;20600;-65
2024/04/03 10:32:54;;;;;;;163.00;157.83;;;12.00;99.90;;;;;;5081008;28;20475;-65
2024/04/03 10:35:20;;;;;;;265.47;257.83;;;11.90;99.90;;;;;;5077932;28;20519;-67
2024/04/03 10:37:47;;;;;;;141.60;137.00;;;11.90;99.90;;;;;;5072678;28;21004;-65
2024/04/03 10:40:13;;;;;;;187.40;181.63;;;11.90;99.90;;;;;;5079475;28;20813;-65
2024/04/03 10:42:40;;;;;;;131.13;126.50;;;11.80;99.90;;;;;;5074749;28;20750;-65
2024/04/03 10:45:08;;;;;;;175.53;169.83;;;11.90;99.90;;;;;;5080908;28;20207;-65
2024/04/03 10:47:36;;;;;;;172.93;167.47;;;11.90;99.90;;;;;;5080831;28;20524;-65
2024/04/03 10:50:02;;;;;;;220.53;213.83;;;11.90;99.90;;;;;;5081131;28;20521;-65
2024/04/03 10:52:29;;;;;;;270.00;262.00;;;12.00;99.90;;;;;;5078255;28;20483;-65
2024/04/03 10:54:56;;;;;;;158.43;153.40;;;12.10;99.90;;;;;;5080340;28;20202;-65
2024/04/03 10:57:23;;;;;;;92.10;88.97;;;12.10;99.90;;;;;;5077138;28;20477;-64
2024/04/03 10:59:49;;;;;;;82.67;79.77;;;12.20;99.90;;;;;;5073932;28;20458;-65
2024/04/03 11:02:16;;;;;;;74.70;71.50;;;12.20;99.90;;;;;;5088579;28;20953;-68
2024/04/03 11:04:44;;;;;;;63.07;60.80;;;12.20;99.90;;;;;;5075907;28;20218;-65
2024/04/03 11:07:14;;;;;;;59.40;57.17;;;12.30;99.90;;;;;;5082270;28;20449;-65
2024/04/03 11:09:40;;;;;;;28.07;26.80;;;12.30;99.90;;;;;;5081574;28;20456;-65
2024/04/03 11:12:10;;;;;;;40.70;38.63;;;12.40;98.60;;;;;;5074637;28;20449;-64
2024/04/03 11:14:36;;;;;;;27.83;26.67;;;12.30;99.90;;;;;;5079879;28;20477;-65
2024/04/03 11:17:07;;;;;;;24.80;23.73;;;12.30;98.60;;;;;;5073562;28;20484;-65
2024/04/03 11:19:33;;;;;;;53.80;51.60;;;12.40;98.60;;;;;;5078413;28;20203;-65
2024/04/03 11:22:01;;;;;;;62.50;60.20;;;12.30;99.90;;;;;;5071638;28;20544;-65
2024/04/03 11:24:27;;;;;;;137.73;133.33;;;12.10;99.90;;;;;;5079833;28;20825;-65
2024/04/03 11:26:53;;;;;;;89.60;86.43;;;12.00;99.90;;;;;;5074243;28;20457;-63
2024/04/03 11:29:27;;;;;;;160.63;155.23;;;11.90;99.90;;;;;;5080371;28;20604;-65
2024/04/03 11:31:54;;;;;;;113.67;109.97;;;11.80;99.90;;;;;;5078221;28;20450;-64
2024/04/03 11:34:20;;;;;;;96.70;93.40;;;11.80;99.90;;;;;;5080422;28;20481;-64
2024/04/03 11:36:47;;;;;;;132.70;128.13;;;11.80;99.90;;;;;;5075388;28;20457;-65
2024/04/03 11:39:18;;;;;;;147.63;142.77;;;11.80;99.90;;;;;;5073981;28;20196;-65
2024/04/03 11:41:45;;;;;;;238.53;231.33;;;11.90;99.90;;;;;;5075205;28;20544;-65
2024/04/03 11:44:12;;;;;;;261.20;253.27;;;11.90;99.90;;;;;;5075522;28;20557;-65
2024/04/03 11:46:39;;;;;;;256.90;249.03;;;11.90;99.90;;;;;;5078555;28;20453;-65
2024/04/03 11:49:05;;;;;;;307.50;297.97;;;11.90;99.90;;;;;;5078180;28;20456;-65
2024/04/03 11:51:32;;;;;;;402.50;389.60;;;11.90;99.90;;;;;;5090156;28;20936;-65
2024/04/03 11:53:57;;;;;;;451.23;435.83;;;12.00;99.90;;;;;;5087660;28;20711;-65
2024/04/03 11:56:29;;;;;;;522.03;503.60;;;12.10;99.90;;;;;;5075717;28;20504;-65
2024/04/03 11:58:55;;;;;;;504.53;486.53;;;12.10;99.90;;;;;;5076665;28;20655;-66
2024/04/03 12:01:22;;;;;;;561.23;540.23;;;12.20;99.90;;;;;;5086472;28;21023;-65
2024/04/03 12:03:48;;;;;;;547.37;526.93;;;12.20;99.90;;;;;;5075829;28;20474;-64
2024/04/03 12:06:15;;;;;;;490.70;473.47;;;12.20;99.90;;;;;;5074905;28;20464;-65
2024/04/03 12:08:41;;;;;;;382.83;370.03;;;12.30;99.90;;;;;;5082399;28;20193;-65
2024/04/03 12:11:07;;;;;;;340.10;328.83;;;12.30;99.90;;;;;;5083091;28;20457;-65
2024/04/03 12:13:36;;;;;;;408.70;395.00;;;12.40;99.90;;;;;;5082087;28;20219;-65